Estación Meteorológica Peña el Pijo (Robertgarden) [ 02/03/23 04:22:58 CET ]

Fecha Hora Presion(HPa) Temp (°C) Humedad % Rocio (°C) Viento ( m/s) Direccion Lluvia 1Hora(mm) Lluvia 24H(mm) LLuvia Total(mm)
2010-Jun-06 01:01:17 1013.800 15.8 73 11.0         120.17
2010-Jun-06 02:01:14 1013.500 15.8 73 11.0         120.17
2010-Jun-06 03:03:21 1013.000 16.2 74 11.6         120.17
2010-Jun-06 04:01:14 1012.700 16.1 74 11.5         120.17
2010-Jun-06 05:01:17 1012.500 16.2 75 11.8         120.17
2010-Jun-06 06:01:13 1012.400 15.2 78 11.4         120.17
2010-Jun-06 07:01:11 1012.500 14.5 81 11.3         120.17
2010-Jun-06 08:01:13 1012.800 17.0 77 12.9         120.17
2010-Jun-06 09:01:12 1012.600 21.6 66 14.9         120.17
2010-Jun-06 10:01:13 1012.400 25.9 48 14.0         120.17
2010-Jun-06 11:01:19 1012.000 29.0 36 12.3 0.3 NE     120.17
2010-Jun-06 12:01:12 1011.800 30.3 25 7.8         120.17
2010-Jun-06 13:01:16 1011.600 32.9 22 8.2 1.7 SW     120.17
2010-Jun-06 14:01:16 1011.400 31.9 21 6.8 2.7 S     120.17
2010-Jun-06 15:01:14 1011.100 32.2 28 11.3         120.17
2010-Jun-06 16:01:14 1011.000 29.2 33 11.2         120.17
2010-Jun-06 17:01:14 1010.900 31.4 31 12.2         120.17
2010-Jun-06 18:01:13 1011.100 29.4 32 10.9 0.7 NE     120.17
2010-Jun-06 19:01:13 1010.900 27.1 35 10.2         120.17
2010-Jun-06 20:01:19 1011.300 25.1 40 10.6         120.17
2010-Jun-06 21:01:13 1011.800 22.9 45 10.3         120.17
2010-Jun-06 22:01:15 1012.100 21.0 54 11.3         120.17
2010-Jun-06 23:01:13 1012.800 19.7 59 11.5         120.17

Temperatura Máxima:32°    Temperatura Mínima:14°
Presión Máxima:1013.800 Hpa    Presión Mínima:1010.900 Hpa


Volver